createdAt,value
2022-10-23T00:00:27.808Z,101363.72
2022-10-23T00:00:59.470Z,101361.28
2022-10-23T00:01:35.783Z,101359.44
2022-10-23T00:02:07.365Z,101368.22
2022-10-23T00:02:38.982Z,101361.28
2022-10-23T00:03:10.596Z,101363.94
2022-10-23T00:03:42.339Z,101363.94
2022-10-23T00:04:17.453Z,101359.44
2022-10-23T00:04:52.624Z,101360.06
2022-10-23T00:05:24.168Z,101358.63
2022-10-23T00:05:55.695Z,101361.28
2022-10-23T00:06:28.514Z,101353.28
2022-10-23T00:07:00.046Z,101361.06
2022-10-23T00:07:31.770Z,101361.91
2022-10-23T00:08:03.401Z,101358.22
2022-10-23T00:08:35.275Z,101359.22
2022-10-23T00:09:08.493Z,101361.91
2022-10-23T00:09:39.979Z,101363.53
2022-10-23T00:10:11.679Z,101360.25
2022-10-23T00:10:44.049Z,101368.22
2022-10-23T00:11:18.702Z,101369.25
2022-10-23T00:11:51.155Z,101367.19
2022-10-23T00:12:23.003Z,101375.56
2022-10-23T00:12:54.625Z,101361.41
2022-10-23T00:13:26.200Z,101367.59
2022-10-23T00:14:00.097Z,101368.41
2022-10-23T00:14:31.737Z,101368.41
2022-10-23T00:15:03.473Z,101368.81
2022-10-23T00:15:36.463Z,101371.28
2022-10-23T00:16:09.092Z,101370.91
2022-10-23T00:16:40.711Z,101375.41
2022-10-23T00:17:12.764Z,101371.91
2022-10-23T00:17:44.728Z,101374.78
2022-10-23T00:18:16.494Z,101375.78
2022-10-23T00:18:48.071Z,101374.97
2022-10-23T00:19:19.622Z,101376.19
2022-10-23T00:19:51.119Z,101374.34
2022-10-23T00:20:22.771Z,101371.06
2022-10-23T00:20:54.455Z,101374.72
2022-10-23T00:21:26.124Z,101373.06
2022-10-23T00:21:57.650Z,101370.41
2022-10-23T00:22:29.129Z,101373.72
2022-10-23T00:23:00.767Z,101368.41
2022-10-23T00:23:32.305Z,101363.91
2022-10-23T00:24:04.126Z,101362.69
2022-10-23T00:24:35.795Z,101367.63
2022-10-23T00:25:08.704Z,101364.34
2022-10-23T00:25:40.232Z,101361.47
2022-10-23T00:26:15.832Z,101354.72
2022-10-23T00:26:49.685Z,101361.88
2022-10-23T00:27:21.255Z,101358.38
2022-10-23T00:27:52.997Z,101359.00
2022-10-23T00:28:24.537Z,101361.66
2022-10-23T00:28:56.119Z,101353.69
2022-10-23T00:29:28.412Z,101356.34
2022-10-23T00:30:00.673Z,101355.34
2022-10-23T00:30:32.212Z,101359.63
2022-10-23T00:31:05.246Z,101358.63
2022-10-23T00:31:37.287Z,101356.34
2022-10-23T00:32:08.801Z,101350.59
2022-10-23T00:32:40.512Z,101355.94
2022-10-23T00:33:12.077Z,101350.78
2022-10-23T00:33:44.010Z,101358.13
2022-10-23T00:34:15.511Z,101356.50
2022-10-23T00:34:47.028Z,101356.88
2022-10-23T00:35:18.725Z,101358.72
2022-10-23T00:35:50.275Z,101351.97
2022-10-23T00:36:21.806Z,101364.88
2022-10-23T00:36:53.376Z,101355.47
2022-10-23T00:37:25.085Z,101353.44
2022-10-23T00:37:56.626Z,101355.72
2022-10-23T00:38:28.207Z,101355.72
2022-10-23T00:38:59.717Z,101356.97
2022-10-23T00:39:31.237Z,101356.97
2022-10-23T00:40:04.689Z,101351.25
2022-10-23T00:40:37.203Z,101348.41
2022-10-23T00:41:10.503Z,101354.13
2022-10-23T00:41:43.023Z,101353.75
2022-10-23T00:42:19.823Z,101346.38
2022-10-23T00:42:51.337Z,101345.75
2022-10-23T00:43:26.076Z,101337.78
2022-10-23T00:44:02.248Z,101337.78
2022-10-23T00:44:33.741Z,101336.97
2022-10-23T00:45:10.476Z,101333.28
2022-10-23T00:45:42.091Z,101339.41
2022-10-23T00:46:13.637Z,101337.38
2022-10-23T00:46:46.257Z,101349.25
2022-10-23T00:47:18.144Z,101341.06
2022-10-23T00:47:49.974Z,101345.97
2022-10-23T00:48:21.847Z,101340.84
2022-10-23T00:48:53.400Z,101341.84
2022-10-23T00:49:25.616Z,101341.44
2022-10-23T00:49:57.830Z,101343.91
2022-10-23T00:50:31.712Z,101343.91
2022-10-23T00:51:03.373Z,101340.63
2022-10-23T00:51:48.001Z,101347.16
2022-10-23T00:52:19.594Z,101351.22
2022-10-23T00:52:53.529Z,101351.16
2022-10-23T00:53:25.130Z,101356.50
2022-10-23T00:54:06.677Z,101350.56
2022-10-23T00:54:50.255Z,101354.03
2022-10-23T00:55:23.330Z,101351.97
2022-10-23T00:55:57.640Z,101351.16
2022-10-23T00:56:31.167Z,101352.97
2022-10-23T00:57:04.718Z,101354.81
2022-10-23T00:57:41.789Z,101355.63
2022-10-23T00:58:14.779Z,101353.19
2022-10-23T00:58:46.309Z,101360.34
2022-10-23T00:59:17.954Z,101359.53
2022-10-23T00:59:49.708Z,101353.78
2022-10-23T01:00:40.530Z,101357.44
2022-10-23T01:01:20.420Z,101350.66
2022-10-23T01:01:52.559Z,101353.47
2022-10-23T01:02:24.314Z,101350.00
2022-10-23T01:02:56.853Z,101350.81
2022-10-23T01:03:29.101Z,101352.66
2022-10-23T01:04:02.035Z,101352.44
2022-10-23T01:04:34.485Z,101348.13
2022-10-23T01:05:08.499Z,101348.94
2022-10-23T01:06:04.765Z,101350.16
2022-10-23T01:06:59.853Z,101349.72
2022-10-23T01:07:56.504Z,101354.63
2022-10-23T01:08:33.773Z,101341.75
2022-10-23T01:09:15.522Z,101346.06
2022-10-23T01:10:10.537Z,101353.22
2022-10-23T01:10:49.090Z,101347.28
2022-10-23T01:11:26.661Z,101348.91
2022-10-23T01:12:15.672Z,101349.53
2022-10-23T01:12:51.103Z,101346.06
2022-10-23T01:13:54.344Z,101346.88
2022-10-23T01:14:32.970Z,101346.88
2022-10-23T01:15:05.178Z,101344.84
2022-10-23T01:15:59.604Z,101350.59
2022-10-23T01:16:46.917Z,101346.72
2022-10-23T01:17:23.706Z,101349.38
2022-10-23T01:18:08.011Z,101340.78
2022-10-23T01:18:53.446Z,101338.75
2022-10-23T01:19:38.983Z,101345.69
2022-10-23T01:20:27.687Z,101343.50
2022-10-23T01:21:18.457Z,101335.69
2022-10-23T01:23:17.757Z,101337.78
2022-10-23T01:24:12.706Z,101341.66
2022-10-23T01:24:57.902Z,101333.88
2022-10-23T01:26:07.290Z,101334.06
2022-10-23T01:26:44.569Z,101329.38
2022-10-23T01:27:33.455Z,101327.34
2022-10-23T01:28:10.650Z,101335.34
2022-10-23T01:28:50.902Z,101333.69
2022-10-23T01:29:37.701Z,101333.03
2022-10-23T01:30:14.959Z,101322.41
2022-10-23T01:31:09.055Z,101332.59
2022-10-23T01:31:49.637Z,101332.19
2022-10-23T01:32:28.935Z,101326.88
2022-10-23T01:33:31.936Z,101341.16
2022-10-23T01:34:12.580Z,101332.97
2022-10-23T01:34:50.858Z,101342.34
2022-10-23T01:35:26.587Z,101333.75
2022-10-23T01:36:06.964Z,101335.41
2022-10-23T01:36:41.381Z,101333.75
2022-10-23T01:37:15.072Z,101332.13
2022-10-23T01:37:51.640Z,101331.69
2022-10-23T01:38:38.435Z,101323.91
2022-10-23T01:39:23.067Z,101322.25
2022-10-23T01:39:56.881Z,101333.72
2022-10-23T01:40:37.725Z,101324.53
2022-10-23T01:41:32.450Z,101322.69
2022-10-23T01:42:11.819Z,101329.66
2022-10-23T01:42:47.246Z,101324.34
2022-10-23T01:43:31.363Z,101320.66
2022-10-23T01:44:26.777Z,101320.47
2022-10-23T01:45:07.396Z,101319.84
2022-10-23T01:45:51.558Z,101318.78
2022-10-23T01:46:26.055Z,101322.25
2022-10-23T01:46:58.118Z,101316.94
2022-10-23T01:47:34.549Z,101316.94
2022-10-23T01:48:14.033Z,101318.59
2022-10-23T01:48:53.253Z,101310.63
2022-10-23T01:49:25.249Z,101315.75
2022-10-23T01:50:01.360Z,101316.56
2022-10-23T01:50:33.388Z,101313.91
2022-10-23T01:51:10.126Z,101314.91
2022-10-23T01:51:45.172Z,101313.91
2022-10-23T01:52:18.389Z,101317.19
2022-10-23T01:52:52.213Z,101311.88
2022-10-23T01:53:26.949Z,101316.16
2022-10-23T01:54:00.370Z,101312.88
2022-10-23T01:54:35.844Z,101311.25
2022-10-23T01:55:10.146Z,101314.91
2022-10-23T01:56:33.054Z,101321.25
2022-10-23T01:57:07.828Z,101323.91
2022-10-23T01:57:40.618Z,101322.25
2022-10-23T01:58:13.635Z,101314.47
2022-10-23T01:58:48.635Z,101317.31
2022-10-23T01:59:23.795Z,101324.66
2022-10-23T02:00:04.117Z,101321.38
2022-10-23T02:00:39.251Z,101325.06
2022-10-23T02:01:11.750Z,101317.28
2022-10-23T02:01:54.540Z,101320.31
2022-10-23T02:02:26.902Z,101316.44
2022-10-23T02:02:58.934Z,101323.41
2022-10-23T02:03:37.604Z,101307.84
2022-10-23T02:04:13.643Z,101310.72
2022-10-23T02:04:53.713Z,101312.53
2022-10-23T02:05:27.334Z,101316.84
2022-10-23T02:06:00.019Z,101309.06
2022-10-23T02:06:31.823Z,101302.31
2022-10-23T02:07:03.811Z,101301.28
2022-10-23T02:07:35.963Z,101307.22
2022-10-23T02:08:07.600Z,101303.75
2022-10-23T02:08:39.697Z,101302.53
2022-10-23T02:09:11.312Z,101304.19
2022-10-23T02:09:43.741Z,101300.72
2022-10-23T02:10:15.959Z,101302.53
2022-10-23T02:10:51.437Z,101290.91
2022-10-23T02:11:23.195Z,101302.97
2022-10-23T02:11:59.283Z,101288.28
2022-10-23T02:12:34.108Z,101288.28
2022-10-23T02:13:10.130Z,101287.25
2022-10-23T02:13:51.862Z,101290.75
2022-10-23T02:14:35.455Z,101292.38
2022-10-23T02:15:15.090Z,101288.91
2022-10-23T02:15:49.689Z,101285.81
2022-10-23T02:16:24.074Z,101291.13
2022-10-23T02:17:02.373Z,101286.63
2022-10-23T02:17:52.051Z,101287.03
2022-10-23T02:18:51.997Z,101283.34
2022-10-23T02:19:44.274Z,101283.16
2022-10-23T02:20:29.302Z,101283.78
2022-10-23T02:21:07.979Z,101272.75
2022-10-23T02:21:51.601Z,101280.38
2022-10-23T02:22:44.118Z,101277.53
2022-10-23T02:23:43.468Z,101272.41
2022-10-23T02:24:18.197Z,101265.81
2022-10-23T02:24:57.318Z,101276.63
2022-10-23T02:25:36.110Z,101266.81
2022-10-23T02:26:16.440Z,101262.72
2022-10-23T02:26:58.137Z,101265.38
2022-10-23T02:27:34.518Z,101266.19
2022-10-23T02:28:08.722Z,101273.16
2022-10-23T02:28:50.801Z,101267.66
2022-10-23T02:29:31.613Z,101261.31
2022-10-23T02:30:07.483Z,101268.47
2022-10-23T02:30:41.717Z,101268.47
2022-10-23T02:31:17.681Z,101270.09
2022-10-23T02:31:49.246Z,101265.66
2022-10-23T02:32:25.182Z,101273.78
2022-10-23T02:32:57.623Z,101263.53
2022-10-23T02:33:29.605Z,101268.25
2022-10-23T02:34:01.135Z,101270.28
2022-10-23T02:34:32.845Z,101268.63
2022-10-23T02:35:05.124Z,101263.31
2022-10-23T02:35:36.740Z,101263.31
2022-10-23T02:36:22.805Z,101260.03
2022-10-23T02:36:54.487Z,101260.44
2022-10-23T02:37:27.063Z,101265.94
2022-10-23T02:37:59.993Z,101269.41
2022-10-23T02:38:40.457Z,101271.44
2022-10-23T02:39:12.002Z,101266.13
2022-10-23T02:39:43.656Z,101272.47
2022-10-23T02:40:15.755Z,101267.78
2022-10-23T02:40:49.938Z,101274.72
2022-10-23T02:41:31.246Z,101270.44
2022-10-23T02:42:17.374Z,101275.53
2022-10-23T02:42:58.734Z,101262.06
2022-10-23T02:43:32.316Z,101267.00
2022-10-23T02:44:22.154Z,101270.28
2022-10-23T02:45:12.070Z,101265.38
2022-10-23T02:46:08.255Z,101253.94
2022-10-23T02:47:01.082Z,101257.22
2022-10-23T02:48:01.690Z,101254.34
2022-10-23T02:48:42.071Z,101260.84
2022-10-23T02:49:39.559Z,101258.84
2022-10-23T02:50:33.700Z,101260.13
2022-10-23T02:51:11.911Z,101263.41
2022-10-23T02:52:11.027Z,101261.38
2022-10-23T02:52:49.990Z,101261.78
2022-10-23T02:53:59.909Z,101260.75
2022-10-23T02:54:48.422Z,101276.50
2022-10-23T02:56:08.269Z,101270.75
2022-10-23T02:57:22.727Z,101272.75
2022-10-23T02:58:04.221Z,101272.97
2022-10-23T02:58:43.660Z,101269.69
2022-10-23T02:59:31.175Z,101267.84
2022-10-23T03:00:11.628Z,101261.72
2022-10-23T03:01:11.709Z,101263.53
2022-10-23T03:01:52.852Z,101261.50
2022-10-23T03:02:37.526Z,101262.13
2022-10-23T03:03:17.056Z,101258.50
2022-10-23T03:03:57.990Z,101258.72
2022-10-23T03:04:31.820Z,101262.63
2022-10-23T03:05:06.558Z,101257.72
2022-10-23T03:05:39.369Z,101256.91
2022-10-23T03:06:11.084Z,101263.88
2022-10-23T03:06:42.950Z,101256.91
2022-10-23T03:07:20.544Z,101265.91
2022-10-23T03:07:52.333Z,101260.59
2022-10-23T03:08:25.193Z,101254.66
2022-10-23T03:09:07.344Z,101260.75
2022-10-23T03:09:39.019Z,101262.13
2022-10-23T03:10:11.001Z,101261.31
2022-10-23T03:10:43.042Z,101262.13
2022-10-23T03:11:15.034Z,101256.81
2022-10-23T03:11:46.812Z,101261.56
2022-10-23T03:12:18.355Z,101250.75
2022-10-23T03:12:50.534Z,101256.47
2022-10-23T03:13:23.368Z,101255.63
2022-10-23T03:13:55.030Z,101261.78
2022-10-23T03:14:26.589Z,101257.47
2022-10-23T03:14:58.099Z,101257.84
2022-10-23T03:15:29.926Z,101256.41
2022-10-23T03:16:02.635Z,101259.25
2022-10-23T03:16:34.391Z,101260.28
2022-10-23T03:17:06.015Z,101258.00
2022-10-23T03:17:37.583Z,101258.00
2022-10-23T03:18:09.330Z,101258.81
2022-10-23T03:18:41.237Z,101257.19
2022-10-23T03:19:13.031Z,101252.69
2022-10-23T03:19:45.457Z,101261.69
2022-10-23T03:20:19.075Z,101252.69
2022-10-23T03:20:50.648Z,101257.81
2022-10-23T03:21:26.246Z,101254.34
2022-10-23T03:21:58.514Z,101251.06
2022-10-23T03:22:30.361Z,101260.03
2022-10-23T03:23:02.071Z,101256.38
2022-10-23T03:23:34.135Z,101251.66
2022-10-23T03:24:06.321Z,101249.84
2022-10-23T03:24:43.048Z,101249.00
2022-10-23T03:25:14.697Z,101245.34
2022-10-23T03:25:46.235Z,101247.19
2022-10-23T03:26:31.102Z,101249.00
2022-10-23T03:27:02.669Z,101246.97
2022-10-23T03:27:37.105Z,101239.00
2022-10-23T03:28:11.240Z,101240.03
2022-10-23T03:28:43.063Z,101243.31
2022-10-23T03:29:14.665Z,101244.94
2022-10-23T03:29:49.372Z,101242.09
2022-10-23T03:30:21.973Z,101235.13
2022-10-23T03:30:58.409Z,101233.69
2022-10-23T03:31:30.839Z,101236.59
2022-10-23T03:32:04.764Z,101238.88
2022-10-23T03:32:36.395Z,101235.56
2022-10-23T03:33:10.064Z,101237.59
2022-10-23T03:33:41.879Z,101232.28
2022-10-23T03:34:16.042Z,101228.00
2022-10-23T03:34:47.700Z,101224.94
2022-10-23T03:35:19.394Z,101222.94
2022-10-23T03:35:51.013Z,101230.72
2022-10-23T03:36:22.697Z,101226.84
2022-10-23T03:36:54.801Z,101225.63
2022-10-23T03:37:26.557Z,101230.72
2022-10-23T03:37:58.149Z,101230.72
2022-10-23T03:38:31.865Z,101221.34
2022-10-23T03:39:04.383Z,101230.34
2022-10-23T03:39:36.471Z,101226.84
2022-10-23T03:40:09.078Z,101224.41
2022-10-23T03:40:40.583Z,101223.38
2022-10-23T03:41:12.224Z,101231.97
2022-10-23T03:41:43.898Z,101230.13
2022-10-23T03:42:15.608Z,101227.06
2022-10-23T03:42:47.201Z,101225.19
2022-10-23T03:43:23.348Z,101226.22
2022-10-23T03:43:55.072Z,101222.53
2022-10-23T03:44:27.303Z,101220.09
2022-10-23T03:44:58.884Z,101221.75
2022-10-23T03:45:30.984Z,101225.41
2022-10-23T03:46:02.679Z,101231.56
2022-10-23T03:46:34.356Z,101229.09
2022-10-23T03:47:05.973Z,101223.78
2022-10-23T03:47:41.398Z,101225.81
2022-10-23T03:48:13.405Z,101227.84
2022-10-23T03:48:45.031Z,101225.19
2022-10-23T03:49:16.743Z,101227.44
2022-10-23T03:49:48.683Z,101238.09
2022-10-23T03:50:20.869Z,101227.84
2022-10-23T03:50:52.778Z,101226.00
2022-10-23T03:51:24.467Z,101225.81
2022-10-23T03:51:56.109Z,101223.78
2022-10-23T03:52:27.810Z,101221.53
2022-10-23T03:52:59.474Z,101219.69
2022-10-23T03:53:31.183Z,101225.84
2022-10-23T03:54:06.179Z,101223.81
2022-10-23T03:54:37.834Z,101224.63
2022-10-23T03:55:09.558Z,101220.94
2022-10-23T03:55:41.781Z,101224.63
2022-10-23T03:56:13.360Z,101214.81
2022-10-23T03:56:44.940Z,101221.97
2022-10-23T03:57:16.464Z,101219.31
2022-10-23T03:57:48.296Z,101215.63
2022-10-23T03:58:19.949Z,101215.22
2022-10-23T03:58:51.561Z,101216.03
2022-10-23T03:59:23.263Z,101209.91
2022-10-23T03:59:54.929Z,101209.91
2022-10-23T04:00:26.534Z,101207.06
2022-10-23T04:00:58.572Z,101209.31
2022-10-23T04:01:30.322Z,101210.75
2022-10-23T04:02:02.092Z,101205.44
2022-10-23T04:02:33.770Z,101207.09
2022-10-23T04:03:05.349Z,101201.38
2022-10-23T04:03:37.005Z,101203.66
2022-10-23T04:04:08.648Z,101200.97
2022-10-23T04:04:40.620Z,101193.63
2022-10-23T04:05:12.343Z,101194.88
2022-10-23T04:05:45.911Z,101193.63
2022-10-23T04:06:17.626Z,101195.28
2022-10-23T04:06:49.349Z,101203.06
2022-10-23T04:07:21.080Z,101192.41
2022-10-23T04:07:53.210Z,101193.25
2022-10-23T04:08:24.920Z,101195.91
2022-10-23T04:08:58.705Z,101205.72
2022-10-23T04:09:30.254Z,101197.72
2022-10-23T04:10:02.002Z,101197.72
2022-10-23T04:10:33.547Z,101198.13
2022-10-23T04:11:05.760Z,101198.53
2022-10-23T04:11:48.841Z,101196.09
2022-10-23T04:12:21.310Z,101202.22
2022-10-23T04:12:52.824Z,101190.75
2022-10-23T04:13:24.478Z,101202.22
2022-10-23T04:13:56.664Z,101191.59
2022-10-23T04:14:28.634Z,101200.59
2022-10-23T04:15:00.158Z,101198.94
2022-10-23T04:15:31.667Z,101202.00
2022-10-23T04:16:03.372Z,101201.38
2022-10-23T04:16:34.910Z,101201.19
2022-10-23T04:17:06.498Z,101204.25
2022-10-23T04:17:38.857Z,101204.25
2022-10-23T04:18:10.385Z,101214.91
2022-10-23T04:18:42.295Z,101199.34
2022-10-23T04:19:17.232Z,101206.31
2022-10-23T04:19:48.883Z,101200.97
2022-10-23T04:20:20.577Z,101208.97
2022-10-23T04:20:52.143Z,101207.13
2022-10-23T04:21:23.711Z,101199.34
2022-10-23T04:21:55.382Z,101197.72
2022-10-23T04:22:28.418Z,101203.84
2022-10-23T04:23:00.201Z,101207.53
2022-10-23T04:23:31.755Z,101207.53
2022-10-23T04:24:03.687Z,101212.03
2022-10-23T04:24:35.503Z,101198.09
2022-10-23T04:25:07.275Z,101208.75
2022-10-23T04:25:39.345Z,101203.03
2022-10-23T04:26:11.129Z,101197.31
2022-10-23T04:26:42.675Z,101194.66
2022-10-23T04:27:16.191Z,101201.81
2022-10-23T04:27:51.095Z,101203.84
2022-10-23T04:28:22.717Z,101203.84
2022-10-23T04:28:54.256Z,101197.72
2022-10-23T04:29:26.081Z,101203.03
2022-10-23T04:29:59.109Z,101200.97
2022-10-23T04:30:31.199Z,101190.34
2022-10-23T04:31:02.688Z,101193.63
2022-10-23T04:31:34.289Z,101193.22
2022-10-23T04:32:08.934Z,101189.94
2022-10-23T04:32:41.035Z,101199.75
2022-10-23T04:33:12.628Z,101197.72
2022-10-23T04:33:44.357Z,101196.91
2022-10-23T04:34:29.853Z,101195.69
2022-10-23T04:35:01.650Z,101191.19
2022-10-23T04:35:35.484Z,101186.69
2022-10-23T04:36:10.381Z,101185.47
2022-10-23T04:36:42.103Z,101182.59
2022-10-23T04:37:15.143Z,101188.75
2022-10-23T04:37:46.997Z,101187.09
2022-10-23T04:38:18.697Z,101187.91
2022-10-23T04:38:50.329Z,101189.34
2022-10-23T04:39:21.833Z,101185.66
2022-10-23T04:39:53.380Z,101192.84
2022-10-23T04:40:26.486Z,101181.19
2022-10-23T04:40:59.497Z,101184.66
2022-10-23T04:41:31.142Z,101182.00
2022-10-23T04:42:02.799Z,101188.75
2022-10-23T04:42:34.425Z,101183.44
2022-10-23T04:43:07.255Z,101186.09
2022-10-23T04:43:42.231Z,101184.25
2022-10-23T04:44:13.761Z,101177.50
2022-10-23T04:44:48.558Z,101177.69
2022-10-23T04:45:20.107Z,101184.66
2022-10-23T04:45:51.683Z,101176.06
2022-10-23T04:46:23.213Z,101182.19
2022-10-23T04:46:55.023Z,101177.69
2022-10-23T04:47:28.198Z,101174.41
2022-10-23T04:48:05.857Z,101177.69
2022-10-23T04:49:03.798Z,101170.34
2022-10-23T04:50:01.584Z,101175.06
2022-10-23T04:51:02.973Z,101168.28
2022-10-23T04:51:53.362Z,101178.75
2022-10-23T04:52:47.888Z,101175.25
2022-10-23T04:53:48.495Z,101175.25
2022-10-23T04:54:37.780Z,101171.59
2022-10-23T04:55:27.200Z,101175.25
2022-10-23T04:56:15.555Z,101175.91
2022-10-23T04:57:04.423Z,101166.91
2022-10-23T04:57:52.501Z,101167.50
2022-10-23T04:58:28.953Z,101170.16
2022-10-23T04:59:37.771Z,101169.16
2022-10-23T05:00:14.383Z,101160.16
2022-10-23T05:00:54.382Z,101172.41
2022-10-23T05:01:29.166Z,101165.47
2022-10-23T05:02:01.818Z,101165.47
2022-10-23T05:02:33.919Z,101162.00
2022-10-23T05:03:05.507Z,101162.81
2022-10-23T05:03:44.229Z,101165.47
2022-10-23T05:04:15.861Z,101157.28
2022-10-23T05:05:17.774Z,101155.22
2022-10-23T05:06:21.580Z,101151.13
2022-10-23T05:07:15.965Z,101146.22
2022-10-23T05:07:54.678Z,101148.28
2022-10-23T05:08:52.149Z,101143.38
2022-10-23T05:09:26.190Z,101153.19
2022-10-23T05:10:10.539Z,101147.06
2022-10-23T05:10:49.183Z,101156.47
2022-10-23T05:11:20.875Z,101152.16
2022-10-23T05:11:54.534Z,101147.06
2022-10-23T05:12:27.507Z,101155.84
2022-10-23T05:12:59.100Z,101145.41
2022-10-23T05:13:30.690Z,101155.03
2022-10-23T05:14:02.190Z,101156.88
2022-10-23T05:14:33.757Z,101151.56
2022-10-23T05:15:06.037Z,101147.06
2022-10-23T05:15:37.626Z,101146.66
2022-10-23T05:16:09.810Z,101156.50
2022-10-23T05:16:57.376Z,101148.06
2022-10-23T05:17:35.062Z,101147.47
2022-10-23T05:18:21.962Z,101144.19
2022-10-23T05:18:53.546Z,101149.50
2022-10-23T05:19:27.941Z,101150.31
2022-10-23T05:20:03.679Z,101147.66
2022-10-23T05:20:36.451Z,101147.06
2022-10-23T05:21:12.080Z,101155.84
2022-10-23T05:21:45.690Z,101145.41
2022-10-23T05:22:18.236Z,101146.22
2022-10-23T05:22:59.310Z,101142.97
2022-10-23T05:23:32.323Z,101149.31
2022-10-23T05:24:06.597Z,101145.00
2022-10-23T05:24:39.019Z,101142.97
2022-10-23T05:25:11.370Z,101139.28
2022-10-23T05:25:44.563Z,101138.47
2022-10-23T05:26:22.326Z,101132.72
2022-10-23T05:26:56.445Z,101136.81
2022-10-23T05:27:28.510Z,101131.50
2022-10-23T05:28:01.566Z,101138.47
2022-10-23T05:28:36.072Z,101128.03
2022-10-23T05:29:08.181Z,101131.09
2022-10-23T05:29:39.777Z,101130.06
2022-10-23T05:30:12.365Z,101127.22
2022-10-23T05:30:44.290Z,101126.63
2022-10-23T05:31:16.391Z,101129.28
2022-10-23T05:31:55.158Z,101128.25
2022-10-23T05:32:29.809Z,101126.19
2022-10-23T05:33:02.605Z,101124.97
2022-10-23T05:33:39.115Z,101134.38
2022-10-23T05:34:15.815Z,101131.09
2022-10-23T05:34:49.126Z,101133.78
2022-10-23T05:35:23.006Z,101128.84
2022-10-23T05:35:55.865Z,101135.59
2022-10-23T05:36:28.039Z,101127.41
2022-10-23T05:37:05.265Z,101131.50
2022-10-23T05:37:44.069Z,101131.50
2022-10-23T05:38:19.754Z,101138.66
2022-10-23T05:38:52.074Z,101137.25
2022-10-23T05:39:25.436Z,101133.16
2022-10-23T05:39:57.971Z,101137.66
2022-10-23T05:40:29.648Z,101130.69
2022-10-23T05:41:09.499Z,101132.53
2022-10-23T05:41:41.124Z,101129.47
2022-10-23T05:42:12.662Z,101129.88
2022-10-23T05:42:45.399Z,101124.56
2022-10-23T05:43:20.494Z,101136.84
2022-10-23T05:44:03.198Z,101132.34
2022-10-23T05:44:53.083Z,101120.88
2022-10-23T05:46:06.709Z,101126.00
2022-10-23T05:46:56.700Z,101124.97
2022-10-23T05:47:49.244Z,101130.72
2022-10-23T05:48:43.593Z,101123.72
2022-10-23T05:49:38.665Z,101133.53
2022-10-23T05:50:36.557Z,101129.69
2022-10-23T05:51:29.517Z,101133.97
2022-10-23T05:52:21.410Z,101135.00
2022-10-23T05:53:15.784Z,101131.94
2022-10-23T05:54:11.686Z,101129.28
2022-10-23T05:54:52.325Z,101134.81
2022-10-23T05:55:46.715Z,101135.22
2022-10-23T05:56:41.572Z,101132.72
2022-10-23T05:57:55.655Z,101135.59
2022-10-23T05:58:45.203Z,101139.47
2022-10-23T05:59:32.484Z,101138.88
2022-10-23T06:00:24.388Z,101140.91
2022-10-23T06:01:14.561Z,101146.44
2022-10-23T06:02:09.324Z,101137.63
2022-10-23T06:02:52.741Z,101132.31
2022-10-23T06:03:39.627Z,101137.84
2022-10-23T06:04:15.054Z,101139.47
2022-10-23T06:05:12.523Z,101136.22
2022-10-23T06:06:07.626Z,101138.88
2022-10-23T06:06:47.590Z,101139.88
2022-10-23T06:07:23.915Z,101144.19
2022-10-23T06:07:59.553Z,101140.09
2022-10-23T06:08:32.149Z,101143.56
2022-10-23T06:09:04.515Z,101140.91
2022-10-23T06:09:41.397Z,101144.81
2022-10-23T06:10:12.945Z,101145.41
2022-10-23T06:10:48.706Z,101137.03
2022-10-23T06:11:20.432Z,101129.03
2022-10-23T06:12:02.828Z,101137.22
2022-10-23T06:12:36.288Z,101139.28
2022-10-23T06:13:08.011Z,101129.03
2022-10-23T06:13:43.186Z,101132.97
2022-10-23T06:14:15.049Z,101133.78
2022-10-23T06:14:47.072Z,101136.03
2022-10-23T06:15:18.862Z,101130.50
2022-10-23T06:16:21.728Z,101130.69
2022-10-23T06:16:53.312Z,101128.22
2022-10-23T06:17:25.297Z,101127.00
2022-10-23T06:18:00.839Z,101122.28
2022-10-23T06:18:32.780Z,101124.34
2022-10-23T06:19:11.604Z,101128.25
2022-10-23T06:19:45.229Z,101115.97
2022-10-23T06:20:18.941Z,101120.47
2022-10-23T06:21:00.531Z,101118.41
2022-10-23T06:21:32.388Z,101122.72
2022-10-23T06:22:05.823Z,101124.56
2022-10-23T06:23:00.266Z,101120.44
2022-10-23T06:23:55.595Z,101117.16
2022-10-23T06:24:34.263Z,101124.13
2022-10-23T06:25:09.370Z,101118.81
2022-10-23T06:25:40.965Z,101118.81
2022-10-23T06:26:14.991Z,101120.03
2022-10-23T06:27:05.406Z,101121.06
2022-10-23T06:27:47.277Z,101117.78
2022-10-23T06:28:20.614Z,101116.53
2022-10-23T06:28:53.133Z,101120.03
2022-10-23T06:29:24.690Z,101121.69
2022-10-23T06:29:56.251Z,101121.06
2022-10-23T06:30:27.903Z,101123.72
2022-10-23T06:30:59.550Z,101116.75
2022-10-23T06:31:31.579Z,101119.44
2022-10-23T06:32:03.341Z,101119.22
2022-10-23T06:32:35.033Z,101115.16
2022-10-23T06:33:15.579Z,101110.44
2022-10-23T06:33:47.602Z,101111.88
2022-10-23T06:34:19.362Z,101115.94
2022-10-23T06:34:51.822Z,101107.34
2022-10-23T06:35:23.404Z,101102.66
2022-10-23T06:35:56.553Z,101103.06
2022-10-23T06:36:28.495Z,101107.75
2022-10-23T06:37:16.357Z,101105.28
2022-10-23T06:37:51.179Z,101104.06
2022-10-23T06:38:37.582Z,101110.22
2022-10-23T06:39:10.218Z,101101.41
2022-10-23T06:40:09.627Z,101110.44
2022-10-23T06:40:56.974Z,101107.97
2022-10-23T06:41:42.016Z,101105.72
2022-10-23T06:42:13.956Z,101113.72
2022-10-23T06:43:06.271Z,101101.63
2022-10-23T06:43:51.867Z,101112.44
2022-10-23T06:44:45.843Z,101100.78
2022-10-23T06:45:21.889Z,101104.03
2022-10-23T06:45:53.388Z,101104.03
2022-10-23T06:46:47.260Z,101105.72
2022-10-23T06:47:44.916Z,101102.63
2022-10-23T06:48:36.503Z,101093.81
2022-10-23T06:49:10.592Z,101101.19
2022-10-23T06:49:50.799Z,101103.22
2022-10-23T06:50:22.500Z,101096.28
2022-10-23T06:50:54.197Z,101097.91
2022-10-23T06:51:31.908Z,101097.91
2022-10-23T06:52:03.524Z,101097.91
2022-10-23T06:52:46.596Z,101097.91
2022-10-23T06:53:20.535Z,101094.22
2022-10-23T06:53:57.545Z,101081.94
2022-10-23T06:54:49.359Z,101094.63
2022-10-23T06:55:30.035Z,101095.06
2022-10-23T06:56:03.467Z,101089.53
2022-10-23T06:56:35.729Z,101093.59
2022-10-23T06:57:10.585Z,101097.09
2022-10-23T06:57:50.696Z,101093.41
2022-10-23T06:58:22.741Z,101089.91
2022-10-23T06:59:07.803Z,101092.94
2022-10-23T06:59:39.564Z,101094.59
2022-10-23T07:00:13.563Z,101092.53
2022-10-23T07:00:54.388Z,101094.59
2022-10-23T07:01:26.258Z,101099.28
2022-10-23T07:02:00.667Z,101095.78
2022-10-23T07:02:32.623Z,101099.06
2022-10-23T07:03:05.268Z,101092.09
2022-10-23T07:03:38.536Z,101108.09